9G0 weather

Buffalo Airfield
Buffalo, New York, United States

Public forecast

Using degrees Fahrenheit for public forecast. Weather courtesy of forecast.io.

METAR (pilot weather report)

Closest report is Buffalo Niagara International Airport, 4.8 nm (8.8 km) N. Retrieved 2019/06/18 17:54 UTC (9 minutes ago):

KBUF 181754Z 01005KT 10SM FEW039 FEW200 FEW250 25/15 A2991 RMK AO2 SLP124 T02500150 10256 20167 58008

TAF (pilot weather forecast)

Closest forecast is Buffalo Niagara International Airport, 4.8 nm (8.8 km) N. Retrieved 2019/06/18 18:42 UTC (0 seconds ago):

TAF KBUF 181739Z 1818/1918 VRB04KT P6SM SCT040 BKN250 FM182000 26006KT P6SM BKN040 FM182300 02006KT P6SM SCT150 FM191300 23006KT P6SM SCT120